Time;durP1;ratioP1;P1;durP2;ratioP2;P2;SDS_P1;SDS_P2;PMS_P1;PMS_P2;Temp;Humidity;BMP_temperature;BMP_pressure;BME280_temperature;BME280_humidity;BME280_pressure;Samples;Min_cycle;Max_cycle;Signal;HPM_P1;HPM_P2
2023/08/21 00:01:41;;;;;;;7.07;2.00;;;18.00;99.90;;;;;;5059091;28;20127;-87
2023/08/21 00:04:07;;;;;;;5.70;1.55;;;18.00;99.90;;;;;;5044313;28;20148;-86
2023/08/21 00:06:33;;;;;;;5.68;1.48;;;17.90;99.90;;;;;;5062417;28;20049;-87
2023/08/21 00:08:59;;;;;;;5.57;1.55;;;17.90;99.90;;;;;;5059554;28;20135;-87
2023/08/21 00:11:25;;;;;;;6.10;1.50;;;17.90;99.90;;;;;;5057594;28;20033;-87
2023/08/21 00:13:51;;;;;;;6.38;1.73;;;17.80;99.90;;;;;;5045853;28;20471;-87
2023/08/21 00:16:17;;;;;;;8.02;2.00;;;17.80;99.90;;;;;;5054305;28;20048;-86
2023/08/21 00:18:43;;;;;;;4.57;2.05;;;17.80;99.90;;;;;;5062986;28;20370;-86
2023/08/21 00:21:09;;;;;;;4.93;1.63;;;17.70;99.90;;;;;;5054238;28;20044;-87
2023/08/21 00:23:35;;;;;;;4.40;1.75;;;17.70;99.90;;;;;;5054033;28;20098;-88
2023/08/21 00:26:01;;;;;;;5.35;1.92;;;17.70;99.90;;;;;;5057984;28;20498;-88
2023/08/21 00:28:32;;;;;;;10.05;1.92;;;17.80;99.90;;;;;;5060320;28;20040;-86
2023/08/21 00:31:07;;;;;;;5.75;1.65;;;17.60;99.90;;;;;;5058995;28;20112;-86
2023/08/21 00:33:33;;;;;;;5.35;1.73;;;17.60;99.90;;;;;;5060822;28;20036;-87
2023/08/21 00:35:59;;;;;;;4.38;1.67;;;17.60;99.90;;;;;;5055192;28;20065;-86
2023/08/21 00:38:25;;;;;;;5.43;1.60;;;17.50;99.90;;;;;;5054921;28;20068;-87
2023/08/21 00:40:51;;;;;;;6.30;1.70;;;17.50;99.90;;;;;;5048704;28;20040;-87
2023/08/21 00:43:17;;;;;;;5.82;1.50;;;17.50;99.90;;;;;;5056885;28;20062;-87
2023/08/21 00:45:44;;;;;;;5.63;1.63;;;17.40;99.90;;;;;;5046353;28;20119;-87
2023/08/21 00:48:11;;;;;;;5.30;1.45;;;17.40;99.90;;;;;;5058031;28;20391;-86
2023/08/21 00:50:38;;;;;;;5.32;1.90;;;17.40;99.90;;;;;;5053721;28;20118;-87
2023/08/21 00:53:04;;;;;;;5.18;1.70;;;17.40;99.90;;;;;;5053740;28;20350;-86
2023/08/21 00:55:31;;;;;;;4.05;1.55;;;17.30;99.90;;;;;;5056977;28;20087;-87
2023/08/21 00:57:57;;;;;;;4.43;1.83;;;17.20;99.90;;;;;;5039723;28;20053;-87
2023/08/21 01:00:25;;;;;;;6.78;1.92;;;17.20;99.90;;;;;;5057190;28;20456;-87
2023/08/21 01:02:50;;;;;;;6.55;1.73;;;17.20;99.90;;;;;;5054133;28;20609;-87
2023/08/21 01:05:22;;;;;;;4.60;1.70;;;17.10;99.90;;;;;;5055138;28;20036;-87
2023/08/21 01:07:56;;;;;;;5.82;1.65;;;17.10;99.90;;;;;;5061796;28;20032;-87
2023/08/21 01:10:37;;;;;;;;;;;17.10;99.90;;;;;;5046392;28;20090;-87
2023/08/21 01:13:40;;;;;;;7.40;1.60;;;17.10;99.90;;;;;;5053743;28;19916;-86
2023/08/21 01:16:07;;;;;;;6.88;1.63;;;17.10;99.90;;;;;;5045651;28;20482;-87
2023/08/21 01:18:34;;;;;;;8.02;2.17;;;16.90;99.90;;;;;;5042459;28;20077;-87
2023/08/21 01:21:03;;;;;;;4.32;1.60;;;17.00;99.90;;;;;;5058164;28;20055;-86
2023/08/21 01:23:38;;;;;;;4.45;1.77;;;17.00;99.90;;;;;;5044218;28;20116;-87
2023/08/21 01:26:05;;;;;;;6.60;1.88;;;17.00;99.90;;;;;;5055180;28;20045;-86
2023/08/21 01:28:32;;;;;;;5.10;1.40;;;17.00;99.90;;;;;;5066748;28;20032;-86
2023/08/21 01:31:09;;;;;;;8.23;1.77;;;16.90;99.90;;;;;;5079721;28;20040;-86
2023/08/21 01:33:44;;;;;;;7.18;1.83;;;16.90;99.90;;;;;;5080891;28;20040;-87
2023/08/21 01:36:10;;;;;;;3.90;1.48;;;17.00;99.90;;;;;;5066772;28;20518;-87
2023/08/21 01:38:36;;;;;;;6.43;1.63;;;16.90;99.90;;;;;;5058659;28;20048;-86
2023/08/21 01:41:02;;;;;;;6.07;1.58;;;16.80;99.90;;;;;;5063449;28;20123;-87
2023/08/21 01:43:28;;;;;;;6.80;1.67;;;16.80;99.90;;;;;;5063199;28;20853;-86
2023/08/21 01:45:54;;;;;;;5.90;1.85;;;16.80;99.90;;;;;;5068255;28;20059;-87
2023/08/21 01:48:20;;;;;;;4.47;1.33;;;16.70;99.90;;;;;;5062604;28;20071;-87
2023/08/21 01:50:45;;;;;;;6.00;1.40;;;16.70;99.90;;;;;;5071778;28;20067;-86
2023/08/21 01:53:11;;;;;;;4.05;1.55;;;16.70;99.90;;;;;;5066647;28;20361;-86
2023/08/21 01:55:37;;;;;;;4.32;1.65;;;16.70;99.90;;;;;;5064057;28;20541;-88
2023/08/21 01:58:03;;;;;;;5.15;1.73;;;16.70;99.90;;;;;;5062869;28;20036;-87
2023/08/21 02:00:28;;;;;;;6.40;2.17;;;16.60;99.90;;;;;;5062429;28;20422;-86
2023/08/21 02:02:54;;;;;;;5.45;1.88;;;16.60;99.90;;;;;;5045812;28;20067;-86
2023/08/21 02:05:19;;;;;;;5.30;1.60;;;16.60;99.90;;;;;;5058305;28;20041;-87
2023/08/21 02:07:45;;;;;;;5.88;2.35;;;16.70;99.90;;;;;;5063480;28;20037;-87
2023/08/21 02:10:11;;;;;;;6.75;1.80;;;16.60;99.90;;;;;;5047719;28;20039;-86
2023/08/21 02:12:37;;;;;;;6.13;1.48;;;16.50;99.90;;;;;;5066178;28;20033;-87
2023/08/21 02:15:03;;;;;;;2.45;1.20;;;16.50;99.90;;;;;;5047822;28;20102;-87
2023/08/21 02:17:30;;;;;;;4.00;1.45;;;16.40;99.90;;;;;;5068416;28;20047;-86
2023/08/21 02:19:55;;;;;;;6.53;1.80;;;16.40;99.90;;;;;;5063478;28;20037;-87
2023/08/21 02:22:21;;;;;;;4.30;1.45;;;16.40;99.90;;;;;;5056046;28;20112;-86
2023/08/21 02:24:47;;;;;;;4.50;1.65;;;16.40;99.90;;;;;;5091001;28;20033;-87
2023/08/21 02:27:12;;;;;;;5.57;1.70;;;16.30;99.90;;;;;;5055793;28;20102;-87
2023/08/21 02:29:38;;;;;;;3.08;1.30;;;16.30;99.90;;;;;;5061399;28;20456;-88
2023/08/21 02:32:04;;;;;;;5.38;1.60;;;16.30;99.90;;;;;;5053899;28;20044;-87
2023/08/21 02:34:29;;;;;;;4.45;1.45;;;16.30;99.90;;;;;;5064814;28;20105;-87
2023/08/21 02:36:56;;;;;;;3.42;1.50;;;16.30;99.90;;;;;;5067182;28;20032;-87
2023/08/21 02:39:21;;;;;;;4.53;1.67;;;16.30;99.90;;;;;;5068620;28;20090;-87
2023/08/21 02:41:47;;;;;;;5.05;1.42;;;16.30;99.90;;;;;;5084198;28;20029;-87
2023/08/21 02:44:13;;;;;;;4.72;1.70;;;16.20;99.90;;;;;;5054256;28;20045;-86
2023/08/21 02:46:39;;;;;;;4.03;1.50;;;16.20;99.90;;;;;;5041001;28;20072;-88
2023/08/21 02:49:04;;;;;;;4.63;1.73;;;16.10;99.90;;;;;;5046603;28;20048;-86
2023/08/21 02:51:30;;;;;;;4.30;1.30;;;16.10;99.90;;;;;;5061158;28;20065;-87
2023/08/21 02:53:56;;;;;;;4.53;1.50;;;16.10;99.90;;;;;;5062385;28;21600;-87
2023/08/21 02:56:21;;;;;;;6.10;1.65;;;16.10;99.90;;;;;;5059411;28;20033;-87
2023/08/21 02:58:47;;;;;;;2.72;1.23;;;16.00;99.90;;;;;;5054784;28;20048;-86
2023/08/21 03:01:13;;;;;;;4.50;1.40;;;16.00;99.90;;;;;;5060187;28;20154;-87
2023/08/21 03:03:38;;;;;;;5.90;1.80;;;16.10;99.90;;;;;;5062875;28;20060;-86
2023/08/21 03:06:04;;;;;;;3.83;1.30;;;16.00;99.90;;;;;;5055955;28;20052;-87
2023/08/21 03:08:30;;;;;;;4.72;1.35;;;16.00;99.90;;;;;;5056865;28;20024;-87
2023/08/21 03:10:55;;;;;;;5.18;1.60;;;16.00;99.90;;;;;;5088932;28;20404;-87
2023/08/21 03:13:21;;;;;;;5.55;1.92;;;16.00;99.90;;;;;;5055060;28;20041;-87
2023/08/21 03:15:47;;;;;;;4.63;1.75;;;16.00;99.90;;;;;;5063794;28;20174;-87
2023/08/21 03:18:12;;;;;;;4.53;2.05;;;15.90;99.90;;;;;;5059111;28;20052;-87
2023/08/21 03:20:43;;;;;;;4.75;2.00;;;15.90;99.90;;;;;;5060804;28;20044;-87
2023/08/21 03:23:09;;;;;;;4.00;1.50;;;15.90;99.90;;;;;;5061151;28;20040;-87
2023/08/21 03:25:34;;;;;;;5.65;1.73;;;15.90;99.90;;;;;;5046932;28;20037;-87
2023/08/21 03:28:00;;;;;;;5.50;2.30;;;15.90;99.90;;;;;;5057144;28;20052;-88
2023/08/21 03:30:26;;;;;;;5.85;1.88;;;15.90;99.90;;;;;;5060187;28;20130;-88
2023/08/21 03:32:51;;;;;;;6.65;2.38;;;15.90;99.90;;;;;;5044758;28;20384;-87
2023/08/21 03:35:17;;;;;;;5.30;1.80;;;15.90;99.90;;;;;;5039352;28;20043;-87
2023/08/21 03:37:43;;;;;;;4.45;1.88;;;15.90;99.90;;;;;;5061550;28;20040;-87
2023/08/21 03:40:09;;;;;;;8.52;2.20;;;15.90;99.90;;;;;;5057730;28;20045;-87
2023/08/21 03:42:35;;;;;;;7.63;2.60;;;15.80;99.90;;;;;;5062598;28;20390;-87
2023/08/21 03:45:03;;;;;;;5.10;1.70;;;15.80;99.90;;;;;;5059241;28;20115;-87
2023/08/21 03:47:29;;;;;;;2.72;1.42;;;15.80;99.90;;;;;;5059431;28;20048;-87
2023/08/21 03:49:55;;;;;;;4.82;2.20;;;15.80;99.90;;;;;;5059135;28;20029;-87
2023/08/21 03:52:20;;;;;;;6.85;2.35;;;15.80;99.90;;;;;;5063501;28;20033;-87
2023/08/21 03:54:46;;;;;;;4.43;2.00;;;15.70;99.90;;;;;;5064850;28;20036;-87
2023/08/21 03:57:12;;;;;;;3.85;1.20;;;15.70;99.90;;;;;;5056431;28;20041;-88
2023/08/21 03:59:37;;;;;;;5.05;1.98;;;15.70;99.90;;;;;;5060926;28;20047;-88
2023/08/21 04:02:03;;;;;;;4.82;1.50;;;15.70;99.90;;;;;;5059069;28;20053;-88
2023/08/21 04:04:28;;;;;;;4.80;1.40;;;15.60;99.90;;;;;;5056854;28;20060;-87
2023/08/21 04:06:54;;;;;;;6.03;1.67;;;15.60;99.90;;;;;;5058487;28;20079;-87
2023/08/21 04:09:20;;;;;;;4.57;1.63;;;15.60;99.90;;;;;;5057048;28;20637;-87
2023/08/21 04:11:45;;;;;;;4.38;1.60;;;15.60;99.90;;;;;;5048924;28;20032;-87
2023/08/21 04:14:11;;;;;;;6.45;2.10;;;15.50;99.90;;;;;;5058239;28;20075;-87
2023/08/21 04:16:37;;;;;;;4.40;1.98;;;15.50;99.90;;;;;;5061706;28;20043;-86
2023/08/21 04:19:02;;;;;;;6.78;2.03;;;15.50;99.90;;;;;;5054880;28;20411;-87
2023/08/21 04:21:28;;;;;;;7.80;1.80;;;15.50;99.90;;;;;;5056238;28;20037;-87
2023/08/21 04:23:54;;;;;;;5.47;1.60;;;15.40;99.90;;;;;;5058065;28;20044;-87
2023/08/21 04:26:19;;;;;;;5.07;1.23;;;15.40;99.90;;;;;;5053986;28;20060;-87
2023/08/21 04:28:45;;;;;;;3.00;1.30;;;15.40;99.90;;;;;;5041221;28;20033;-87
2023/08/21 04:31:11;;;;;;;5.20;1.50;;;15.40;99.90;;;;;;5058465;28;20454;-87
2023/08/21 04:33:37;;;;;;;5.00;1.65;;;15.40;99.90;;;;;;5056903;28;20032;-88
2023/08/21 04:36:03;;;;;;;5.15;1.63;;;15.40;99.90;;;;;;5093466;28;20045;-87
2023/08/21 04:38:29;;;;;;;4.72;1.50;;;15.40;99.90;;;;;;5060112;28;20036;-87
2023/08/21 04:40:54;;;;;;;6.65;1.63;;;15.40;99.90;;;;;;5054159;28;20044;-87
2023/08/21 04:43:20;;;;;;;3.35;1.55;;;15.50;99.90;;;;;;5052055;28;20067;-87
2023/08/21 04:45:50;;;;;;;3.95;1.58;;;15.40;99.90;;;;;;5055163;28;20032;-87
2023/08/21 04:48:16;;;;;;;4.97;1.27;;;15.40;99.90;;;;;;5061149;28;20036;-87
2023/08/21 04:50:42;;;;;;;5.85;1.52;;;15.40;99.90;;;;;;5034228;28;20044;-87
2023/08/21 04:53:08;;;;;;;5.63;1.58;;;15.50;99.90;;;;;;5056753;28;20056;-87
2023/08/21 04:55:33;;;;;;;6.13;1.48;;;15.40;99.90;;;;;;5068153;28;20132;-87
2023/08/21 04:57:59;;;;;;;3.85;1.60;;;15.50;99.90;;;;;;5062057;28;20054;-87
2023/08/21 05:00:25;;;;;;;7.75;1.60;;;15.50;99.90;;;;;;5059564;28;20040;-87
2023/08/21 05:02:50;;;;;;;4.38;1.80;;;15.40;99.90;;;;;;5055574;28;20045;-87
2023/08/21 05:05:17;;;;;;;5.15;1.60;;;15.40;99.90;;;;;;5054000;28;20142;-87
2023/08/21 05:07:43;;;;;;;7.35;1.42;;;15.30;99.90;;;;;;5055249;28;20395;-87
2023/08/21 05:10:09;;;;;;;3.08;1.45;;;15.30;99.90;;;;;;5054869;28;20045;-86
2023/08/21 05:12:35;;;;;;;3.08;1.40;;;15.30;99.90;;;;;;5057452;28;20055;-87
2023/08/21 05:15:01;;;;;;;5.57;1.20;;;15.30;99.90;;;;;;5045010;28;20623;-86
2023/08/21 05:17:26;;;;;;;3.03;1.00;;;15.40;99.90;;;;;;5063664;28;20032;-87
2023/08/21 05:19:52;;;;;;;4.95;1.67;;;15.40;99.90;;;;;;5054127;28;20028;-87
2023/08/21 05:22:18;;;;;;;4.93;1.63;;;15.40;99.90;;;;;;5082994;28;20040;-87
2023/08/21 05:24:43;;;;;;;3.03;1.50;;;15.40;99.90;;;;;;5057348;28;20080;-86
2023/08/21 05:27:09;;;;;;;5.63;2.00;;;15.40;99.90;;;;;;5053967;28;20047;-87
2023/08/21 05:29:35;;;;;;;4.35;1.48;;;15.40;99.90;;;;;;5056141;28;20041;-87
2023/08/21 05:32:01;;;;;;;4.78;1.30;;;15.40;99.90;;;;;;5057677;28;20048;-87
2023/08/21 05:34:27;;;;;;;3.50;1.17;;;15.40;99.90;;;;;;5055518;28;20036;-87
2023/08/21 05:36:54;;;;;;;4.95;1.65;;;15.40;99.90;;;;;;5050774;28;20094;-87
2023/08/21 05:39:20;;;;;;;3.72;1.50;;;15.40;99.90;;;;;;5055467;28;20458;-87
2023/08/21 05:41:46;;;;;;;4.35;1.80;;;15.40;99.90;;;;;;5046377;28;20032;-88
2023/08/21 05:44:11;;;;;;;3.78;1.50;;;15.40;99.90;;;;;;5039827;28;20081;-87
2023/08/21 05:46:38;;;;;;;4.18;1.50;;;15.40;99.90;;;;;;5055354;28;20066;-87
2023/08/21 05:49:03;;;;;;;4.18;1.85;;;15.50;99.90;;;;;;5052890;28;20056;-87
2023/08/21 05:51:30;;;;;;;8.48;2.95;;;15.50;99.90;;;;;;5055048;28;20033;-87
2023/08/21 05:53:56;;;;;;;5.05;2.00;;;15.50;99.90;;;;;;5063306;28;20068;-86
2023/08/21 05:56:23;;;;;;;5.32;2.28;;;15.50;99.90;;;;;;5062138;28;20060;-86
2023/08/21 05:58:48;;;;;;;5.65;2.63;;;15.50;99.90;;;;;;5058439;28;20535;-85
2023/08/21 06:01:14;;;;;;;6.18;2.33;;;15.50;99.90;;;;;;5060879;28;20071;-86
2023/08/21 06:03:40;;;;;;;8.68;2.72;;;15.50;99.90;;;;;;5037053;28;20048;-85
2023/08/21 06:06:05;;;;;;;4.57;1.90;;;15.50;99.90;;;;;;5053437;28;20037;-85
2023/08/21 06:08:48;;;;;;;4.68;1.80;;;15.60;99.90;;;;;;5056779;28;20112;-85
2023/08/21 06:11:14;;;;;;;4.25;1.88;;;15.60;99.90;;;;;;5063423;28;20155;-85
2023/08/21 06:13:40;;;;;;;6.75;1.70;;;15.60;99.90;;;;;;5059920;28;20178;-86
2023/08/21 06:16:06;;;;;;;4.65;1.48;;;15.60;99.90;;;;;;5058130;28;20171;-86
2023/08/21 06:18:31;;;;;;;4.95;1.83;;;15.70;99.90;;;;;;5067502;28;20097;-85
2023/08/21 06:20:57;;;;;;;5.40;1.50;;;15.70;99.90;;;;;;5051063;28;20101;-86
2023/08/21 06:23:23;;;;;;;6.85;1.52;;;15.70;99.90;;;;;;5066760;28;20044;-88
2023/08/21 06:25:49;;;;;;;4.10;1.52;;;15.70;99.90;;;;;;5065418;28;20428;-88
2023/08/21 06:28:15;;;;;;;8.88;1.95;;;15.80;99.90;;;;;;5065142;28;20068;-88
2023/08/21 06:30:41;;;;;;;8.32;1.80;;;15.80;99.90;;;;;;5069426;28;20146;-87
2023/08/21 06:33:07;;;;;;;7.25;1.80;;;15.90;99.90;;;;;;5064014;28;20371;-87
2023/08/21 06:35:36;;;;;;;6.35;1.58;;;15.90;99.90;;;;;;5061199;28;20037;-85
2023/08/21 06:38:02;;;;;;;4.63;1.17;;;15.90;99.90;;;;;;5063713;28;20043;-89
2023/08/21 06:40:28;;;;;;;7.00;1.73;;;16.00;99.90;;;;;;5065664;28;20036;-84
2023/08/21 06:42:53;;;;;;;6.85;2.08;;;16.00;99.90;;;;;;5063467;28;20036;-87
2023/08/21 06:45:19;;;;;;;10.88;2.28;;;16.10;99.90;;;;;;5058984;28;20040;-91
2023/08/21 06:47:45;;;;;;;7.85;1.88;;;16.10;99.90;;;;;;5066777;28;20087;-94
2023/08/21 06:50:10;;;;;;;6.10;1.92;;;16.10;99.90;;;;;;5062749;28;20537;-91
2023/08/21 06:52:36;;;;;;;4.45;1.70;;;16.20;99.90;;;;;;5059753;28;20087;-87
2023/08/21 06:55:02;;;;;;;6.57;1.65;;;16.20;99.90;;;;;;5058445;28;20096;-87
2023/08/21 06:57:27;;;;;;;7.47;1.80;;;16.30;99.90;;;;;;5090132;28;20049;-87
2023/08/21 06:59:54;;;;;;;5.28;1.48;;;16.30;99.90;;;;;;5095390;28;20055;-88
2023/08/21 07:02:19;;;;;;;7.80;1.90;;;16.40;99.90;;;;;;5061091;28;20093;-88
2023/08/21 07:04:45;;;;;;;8.23;2.38;;;16.40;99.90;;;;;;5065097;28;20044;-87
2023/08/21 07:07:11;;;;;;;7.05;1.52;;;16.50;99.90;;;;;;5059792;28;20048;-87
2023/08/21 07:09:36;;;;;;;5.47;1.55;;;16.50;99.90;;;;;;5064484;28;20123;-87
2023/08/21 07:12:02;;;;;;;4.63;1.80;;;16.60;99.90;;;;;;5065144;28;20039;-87
2023/08/21 07:14:28;;;;;;;5.22;1.40;;;16.60;99.90;;;;;;5058652;28;20033;-87
2023/08/21 07:16:54;;;;;;;7.32;1.60;;;16.70;99.90;;;;;;5094247;28;20154;-87
2023/08/21 07:19:20;;;;;;;4.00;1.40;;;16.70;99.90;;;;;;5061926;28;20037;-87
2023/08/21 07:21:45;;;;;;;6.15;1.38;;;16.80;99.90;;;;;;5059585;28;20037;-87
2023/08/21 07:24:11;;;;;;;5.20;2.03;;;16.90;99.90;;;;;;5058698;28;20033;-88
2023/08/21 07:26:36;;;;;;;7.30;1.55;;;16.90;99.90;;;;;;5064225;28;20467;-87
2023/08/21 07:29:04;;;;;;;4.80;1.27;;;16.90;99.90;;;;;;5057706;28;20055;-88
2023/08/21 07:31:31;;;;;;;5.15;1.40;;;17.00;99.90;;;;;;5093465;28;20083;-87
2023/08/21 07:33:56;;;;;;;5.50;1.50;;;17.10;99.90;;;;;;5058436;28;20072;-86
2023/08/21 07:36:22;;;;;;;7.68;0.98;;;17.10;99.90;;;;;;5059698;28;20083;-87
2023/08/21 07:38:48;;;;;;;4.57;1.20;;;17.20;99.90;;;;;;5059376;28;20116;-87
2023/08/21 07:41:14;;;;;;;7.15;1.10;;;17.20;99.90;;;;;;5087936;28;20064;-87
2023/08/21 07:43:42;;;;;;;7.50;1.30;;;17.30;99.90;;;;;;5059106;28;20040;-87
2023/08/21 07:46:15;;;;;;;7.70;1.73;;;17.40;99.90;;;;;;5059483;28;20036;-87
2023/08/21 07:48:44;;;;;;;4.82;1.30;;;17.40;99.90;;;;;;5062102;28;20040;-87
2023/08/21 07:51:10;;;;;;;3.47;0.93;;;17.50;99.90;;;;;;5060808;28;20051;-87
2023/08/21 07:53:36;;;;;;;4.82;1.23;;;17.60;99.90;;;;;;5056385;28;20040;-87
2023/08/21 07:56:06;;;;;;;6.13;1.30;;;17.70;99.90;;;;;;5056867;28;20058;-88
2023/08/21 07:58:33;;;;;;;4.50;1.10;;;17.80;99.90;;;;;;5061520;28;20032;-87
2023/08/21 08:01:01;;;;;;;5.55;1.13;;;17.80;99.90;;;;;;5060749;28;20036;-87
2023/08/21 08:03:27;;;;;;;4.72;1.15;;;18.00;99.90;;;;;;5065089;28;20073;-87
2023/08/21 08:05:53;;;;;;;3.67;1.13;;;18.10;99.90;;;;;;5061141;28;20467;-87
2023/08/21 08:08:18;;;;;;;5.90;1.10;;;18.20;99.90;;;;;;5062254;28;20036;-86
2023/08/21 08:10:44;;;;;;;7.53;1.90;;;18.30;99.90;;;;;;5041078;28;20043;-86
2023/08/21 08:13:10;;;;;;;6.97;1.60;;;18.40;99.90;;;;;;5061691;28;20123;-87
2023/08/21 08:15:36;;;;;;;7.22;1.05;;;18.50;99.90;;;;;;5054821;28;20123;-87
2023/08/21 08:18:03;;;;;;;5.95;1.25;;;18.60;99.90;;;;;;5056842;28;20052;-86
2023/08/21 08:20:29;;;;;;;6.05;1.35;;;18.70;99.90;;;;;;5059678;28;20032;-87
2023/08/21 08:22:55;;;;;;;7.25;1.20;;;18.80;99.90;;;;;;5057894;28;20483;-86
2023/08/21 08:25:24;;;;;;;5.38;1.40;;;18.90;99.90;;;;;;5052053;28;20032;-86
2023/08/21 08:27:51;;;;;;;3.35;1.17;;;19.00;99.90;;;;;;5037618;28;20464;-87
2023/08/21 08:30:17;;;;;;;5.65;1.17;;;19.20;99.90;;;;;;5061593;28;20394;-87
2023/08/21 08:32:44;;;;;;;4.70;1.10;;;19.40;99.90;;;;;;5053245;28;20057;-87
2023/08/21 08:35:14;;;;;;;6.00;1.25;;;19.60;99.90;;;;;;5085056;28;20057;-87
2023/08/21 08:37:43;;;;;;;6.72;1.00;;;19.70;99.90;;;;;;5050366;28;20045;-86
2023/08/21 08:40:11;;;;;;;5.78;1.00;;;19.90;99.90;;;;;;5057852;28;20045;-86
2023/08/21 08:42:37;;;;;;;5.85;1.02;;;20.00;99.90;;;;;;5054584;28;20029;-86
2023/08/21 08:45:04;;;;;;;4.00;1.10;;;20.10;99.90;;;;;;5061696;28;20047;-85
2023/08/21 08:47:32;;;;;;;4.75;1.00;;;20.30;99.90;;;;;;5044857;28;20068;-86
2023/08/21 08:49:59;;;;;;;9.00;2.28;;;20.40;99.90;;;;;;5060299;28;20032;-86
2023/08/21 08:52:26;;;;;;;3.83;0.93;;;20.50;99.90;;;;;;5058426;28;20092;-86
2023/08/21 08:54:55;;;;;;;7.55;1.25;;;20.60;99.90;;;;;;5057844;28;20044;-85
2023/08/21 08:57:21;;;;;;;2.78;0.90;;;20.70;99.90;;;;;;5058390;28;20530;-85
2023/08/21 08:59:49;;;;;;;6.72;1.20;;;20.80;99.90;;;;;;5061332;28;20166;-91
2023/08/21 09:02:15;;;;;;;4.88;0.90;;;21.00;99.90;;;;;;5061106;28;20060;-91
2023/08/21 09:04:41;;;;;;;3.53;0.85;;;21.10;99.90;;;;;;5066477;28;20044;-92
2023/08/21 09:07:12;;;;;;;3.88;0.90;;;21.20;99.90;;;;;;5062408;28;20044;-92
2023/08/21 09:09:45;;;;;;;5.32;0.88;;;21.40;99.90;;;;;;5091444;28;20739;-93
2023/08/21 09:12:15;;;;;;;3.42;0.68;;;21.40;99.90;;;;;;5061077;28;20029;-89
2023/08/21 09:14:41;;;;;;;5.07;0.90;;;21.50;99.90;;;;;;5054426;28;20136;-88
2023/08/21 09:17:07;;;;;;;5.72;0.70;;;21.50;99.90;;;;;;5058512;28;20068;-89
2023/08/21 09:19:33;;;;;;;4.07;0.90;;;21.60;99.90;;;;;;5060825;28;20043;-88
2023/08/21 09:22:07;;;;;;;4.53;0.90;;;21.70;99.90;;;;;;5050372;28;20045;-88
2023/08/21 09:24:33;;;;;;;4.30;1.02;;;21.80;99.90;;;;;;5081916;28;20510;-88
2023/08/21 09:27:01;;;;;;;3.42;0.90;;;21.80;99.90;;;;;;5066305;28;20048;-94
2023/08/21 09:29:37;;;;;;;4.15;0.88;;;21.90;99.90;;;;;;5067501;28;20040;-94
2023/08/21 09:32:06;;;;;;;2.58;0.80;;;22.00;99.90;;;;;;5062521;28;20048;-91
2023/08/21 09:34:36;;;;;;;3.83;0.80;;;22.10;99.90;;;;;;5057535;28;20051;-86
2023/08/21 09:37:05;;;;;;;4.15;0.88;;;22.20;99.90;;;;;;5055252;28;20067;-87
2023/08/21 09:39:35;;;;;;;3.60;0.70;;;22.20;99.90;;;;;;5058677;28;20486;-88
2023/08/21 09:42:04;;;;;;;3.95;0.85;;;22.40;99.90;;;;;;5061451;28;20086;-87
2023/08/21 09:44:39;;;;;;;5.60;1.08;;;22.40;99.90;;;;;;5058693;28;20070;-85
2023/08/21 09:47:09;;;;;;;3.85;1.00;;;22.60;99.90;;;;;;5059338;28;20048;-85
2023/08/21 09:49:36;;;;;;;4.78;0.98;;;22.60;99.90;;;;;;5065559;28;20037;-85
2023/08/21 09:52:05;;;;;;;6.38;1.17;;;22.80;99.90;;;;;;5059287;28;20103;-85
2023/08/21 09:54:31;;;;;;;4.22;1.20;;;22.80;99.90;;;;;;5059173;28;20304;-85
2023/08/21 09:57:01;;;;;;;4.78;1.33;;;22.80;99.90;;;;;;5061273;28;20037;-85
2023/08/21 09:59:28;;;;;;;4.68;1.17;;;22.90;99.90;;;;;;5063786;28;20044;-85
2023/08/21 10:01:56;;;;;;;9.45;1.15;;;23.00;99.90;;;;;;5044603;28;20037;-85
2023/08/21 10:04:23;;;;;;;4.90;0.90;;;23.20;99.90;;;;;;5091185;28;20052;-85
2023/08/21 10:06:52;;;;;;;5.32;1.23;;;23.30;99.90;;;;;;5055190;28;20044;-86
2023/08/21 10:09:18;;;;;;;2.88;0.80;;;23.30;99.90;;;;;;5064350;28;20115;-85
2023/08/21 10:11:44;;;;;;;7.95;1.10;;;23.50;99.90;;;;;;5090259;28;20041;-86
2023/08/21 10:14:11;;;;;;;6.55;1.13;;;23.60;99.90;;;;;;5041135;28;20079;-85
2023/08/21 10:16:36;;;;;;;3.83;0.80;;;23.60;99.90;;;;;;5058716;28;20045;-85
2023/08/21 10:19:08;;;;;;;5.40;0.90;;;23.70;99.90;;;;;;5061611;28;20103;-85
2023/08/21 10:21:37;;;;;;;3.00;0.77;;;23.80;99.90;;;;;;5064193;28;20037;-85
2023/08/21 10:24:03;;;;;;;4.30;1.00;;;23.90;99.90;;;;;;5054953;28;20041;-85
2023/08/21 10:26:29;;;;;;;4.55;0.77;;;24.00;99.90;;;;;;5060078;28;20480;-85
2023/08/21 10:29:02;;;;;;;3.28;0.60;;;24.10;99.90;;;;;;5063793;28;20548;-86
2023/08/21 10:31:29;;;;;;;4.93;0.88;;;24.20;99.90;;;;;;5070803;28;20055;-91
2023/08/21 10:33:55;;;;;;;2.50;0.70;;;24.20;99.90;;;;;;5060273;28;20041;-86
2023/08/21 10:36:43;;;;;;;4.85;0.80;;;24.40;99.90;;;;;;5060320;28;20432;-87
2023/08/21 10:39:19;;;;;;;2.88;0.70;;;24.40;99.90;;;;;;5063270;28;20048;-85
2023/08/21 10:41:55;;;;;;;4.75;0.60;;;24.40;99.90;;;;;;5060551;28;20040;-86
2023/08/21 10:44:43;;;;;;;4.95;0.82;;;24.50;99.90;;;;;;5062369;28;20044;-86
2023/08/21 10:47:19;;;;;;;2.03;0.68;;;24.60;99.90;;;;;;5048271;28;20395;-89
2023/08/21 10:49:55;;;;;;;5.38;0.80;;;24.60;99.90;;;;;;5044031;28;20044;-88
2023/08/21 10:52:35;;;;;;;4.85;1.05;;;24.70;99.90;;;;;;5054618;28;20045;-86
2023/08/21 10:55:03;;;;;;;4.72;0.77;;;24.70;99.90;;;;;;5091284;28;20044;-86
2023/08/21 10:57:31;;;;;;;4.95;1.02;;;24.80;99.90;;;;;;5055385;28;20049;-85
2023/08/21 11:00:08;;;;;;;6.05;1.00;;;24.90;99.90;;;;;;5088208;28;20399;-87
2023/08/21 11:02:33;;;;;;;4.50;1.00;;;25.00;99.90;;;;;;5061185;28;20044;-86
2023/08/21 11:05:00;;;;;;;4.38;1.30;;;25.20;99.90;;;;;;5039739;28;20060;-86
2023/08/21 11:07:27;;;;;;;5.05;0.80;;;25.20;99.90;;;;;;5045928;28;20510;-86
2023/08/21 11:09:52;;;;;;;6.75;0.93;;;25.20;99.90;;;;;;5062939;28;20036;-87
2023/08/21 11:12:20;;;;;;;3.67;0.80;;;25.30;99.90;;;;;;5047385;28;20048;-86
2023/08/21 11:14:46;;;;;;;3.38;0.65;;;25.30;99.90;;;;;;5060231;28;20044;-86
2023/08/21 11:17:12;;;;;;;6.22;1.08;;;25.40;99.90;;;;;;5094800;28;20067;-88
2023/08/21 11:19:39;;;;;;;5.75;0.90;;;25.50;99.90;;;;;;5041112;28;20255;-86
2023/08/21 11:22:06;;;;;;;6.35;1.25;;;25.60;99.90;;;;;;5043146;28;20043;-88
2023/08/21 11:24:39;;;;;;;3.75;0.80;;;25.50;99.90;;;;;;5054473;28;20124;-85
2023/08/21 11:27:05;;;;;;;5.37;0.90;;;25.50;99.90;;;;;;5062619;28;20147;-85
2023/08/21 11:29:42;;;;;;;5.05;1.20;;;25.50;99.90;;;;;;5064193;28;20374;-85
2023/08/21 11:32:09;;;;;;;2.65;0.68;;;25.50;99.90;;;;;;5052795;28;20610;-85
2023/08/21 11:34:35;;;;;;;4.40;0.80;;;25.40;99.90;;;;;;5052734;28;20383;-83
2023/08/21 11:37:01;;;;;;;3.70;1.10;;;25.30;99.90;;;;;;5062984;28;20051;-84
2023/08/21 11:39:30;;;;;;;5.93;0.93;;;25.10;99.90;;;;;;5060326;28;20032;-83
2023/08/21 11:41:59;;;;;;;5.00;0.95;;;25.00;99.90;;;;;;5060787;28;20041;-86
2023/08/21 11:44:25;;;;;;;4.53;0.90;;;25.00;99.90;;;;;;5066360;28;20051;-88
2023/08/21 11:46:53;;;;;;;3.63;0.82;;;25.10;99.90;;;;;;5056738;28;20051;-86
2023/08/21 11:49:19;;;;;;;2.60;0.90;;;25.20;99.90;;;;;;5046887;28;20502;-88
2023/08/21 11:51:48;;;;;;;4.43;0.93;;;25.40;99.90;;;;;;5055795;28;20045;-87
2023/08/21 11:54:13;;;;;;;4.30;0.77;;;25.50;99.90;;;;;;5090256;28;20563;-87
2023/08/21 11:56:42;;;;;;;4.80;1.13;;;25.70;99.90;;;;;;5050743;28;20131;-86
2023/08/21 11:59:08;;;;;;;4.75;0.88;;;25.80;99.90;;;;;;5051286;28;20426;-87
2023/08/21 12:01:34;;;;;;;2.60;0.70;;;25.90;99.60;;;;;;5054313;28;20065;-85
2023/08/21 12:03:59;;;;;;;4.53;0.93;;;26.00;99.70;;;;;;5060693;28;20110;-86
2023/08/21 12:06:26;;;;;;;5.88;1.08;;;26.10;99.70;;;;;;5054518;28;20968;-87
2023/08/21 12:08:51;;;;;;;2.78;0.90;;;26.20;99.20;;;;;;5053388;28;20037;-88
2023/08/21 12:11:17;;;;;;;4.10;1.10;;;26.30;98.80;;;;;;5037422;28;20440;-86
2023/08/21 12:13:43;;;;;;;3.92;0.80;;;26.40;99.10;;;;;;5059651;28;20032;-86
2023/08/21 12:16:09;;;;;;;4.88;1.20;;;26.50;98.30;;;;;;5055509;28;20050;-86
2023/08/21 12:18:35;;;;;;;7.35;1.17;;;26.50;98.20;;;;;;5050894;28;20112;-86
2023/08/21 12:21:01;;;;;;;3.15;0.90;;;26.70;98.10;;;;;;5035435;28;20068;-86
2023/08/21 12:23:26;;;;;;;4.65;1.25;;;26.70;97.90;;;;;;5054808;28;20044;-83
2023/08/21 12:25:52;;;;;;;3.45;1.05;;;26.80;98.00;;;;;;5034096;28;20033;-84
2023/08/21 12:28:18;;;;;;;3.60;0.95;;;26.90;97.80;;;;;;5062184;28;20028;-84
2023/08/21 12:30:44;;;;;;;5.47;1.20;;;26.90;98.00;;;;;;5086985;28;20047;-84
2023/08/21 12:33:09;;;;;;;5.20;1.15;;;27.00;97.20;;;;;;5070033;28;20143;-84
2023/08/21 12:35:35;;;;;;;4.70;1.25;;;27.00;97.80;;;;;;5055857;28;20382;-84
2023/08/21 12:38:05;;;;;;;4.43;0.70;;;27.10;97.40;;;;;;5045672;28;20041;-84
2023/08/21 12:40:32;;;;;;;3.58;0.90;;;27.20;98.10;;;;;;5065746;28;20094;-84
2023/08/21 12:42:57;;;;;;;3.40;0.90;;;27.30;98.10;;;;;;5052770;28;20025;-84
2023/08/21 12:45:23;;;;;;;4.25;0.85;;;27.50;98.70;;;;;;5059006;28;20398;-84
2023/08/21 12:47:48;;;;;;;4.20;0.85;;;27.60;99.20;;;;;;5052277;28;20044;-84